Eko 2 — SY9957 — position and weather

sailwx.info

Track history (hours):
 
Tides and Currents Weather Stations Pressure Air Temp Water Temp Dewpoint Dewpoint Depression Visibility Wind Speed Wind Dir Waves Ship Positions

Eko 2

Last reported at 2015-Apr-02 05:16 UTC. Time now 2015-Apr-02 06:32 UTC.
Position N 38°02' E 023°32'.

Length 89 m; draft 4.4 m.

Type: Ship (hazmat cat A). MMSI: 240827000.

Date/timePositionNaut miles runAvg speedWind from/ knotsBaromVisibWave heightAir tempDewpointWater temp
2015-Apr-02 05:16N 38°02' E 023°32'2 2.6
2015-Apr-02 04:31N 37°60' E 023°33'5 5.7
2015-Apr-02 03:33N 37°55' E 023°36'7 7.5
2015-Apr-02 02:33N 37°48' E 023°41'9 9.4
2015-Apr-02 01:33N 37°40' E 023°46'49 9.5
2015-Apr-01 20:25N 37°23' E 024°44'8 9.2
2015-Apr-01 19:33N 37°20' E 024°53'10 8.4
2015-Apr-01 18:19N 37°16' E 025°05'6 8.4
2015-Apr-01 17:33N 37°13' E 025°12'9 9.0
2015-Apr-01 16:33N 37°07' E 025°21'1 1.4
2015-Apr-01 15:33N 37°06' E 025°22'1 0.6
2015-Apr-01 14:33N 37°06' E 025°22'0 0.0
2015-Apr-01 13:33N 37°06' E 025°22'2 1.7
2015-Apr-01 12:33N 37°07' E 025°20'2 1.7
2015-Apr-01 11:33N 37°06' E 025°22'0 0.0
2015-Apr-01 10:33N 37°06' E 025°22'0 0.1
2015-Apr-01 09:33N 37°06' E 025°22'0 0.1
2015-Apr-01 08:30N 37°06' E 025°22'0 0.0
2015-Apr-01 07:33N 37°06' E 025°22'0 0.4
2015-Apr-01 06:33N 37°06' E 025°22'0 0.4
2015-Apr-01 05:32N 37°06' E 025°22'1 1.1
2015-Apr-01 04:33N 37°06' E 025°21'3310.2
2015-Apr-01 01:17N 36°33' E 025°18'810.4
2015-Apr-01 00:33N 36°26' E 025°23'4 3.8
2015-Mar-31 23:28N 36°23' E 025°26'0 0.0
2015-Mar-31 22:31N 36°23' E 025°26'0 0.0
2015-Mar-31 21:28N 36°23' E 025°26'0 0.0
2015-Mar-31 20:32N 36°23' E 025°26'0 0.0
2015-Mar-31 19:31N 36°23' E 025°26'0 0.0
2015-Mar-31 18:31N 36°23' E 025°26'0 0.0
2015-Mar-31 17:32N 36°23' E 025°26'0 0.0
2015-Mar-31 16:32N 36°23' E 025°26'0 0.0
2015-Mar-31 15:32N 36°23' E 025°26'0 0.0
2015-Mar-31 14:31N 36°23' E 025°26'0 0.0
2015-Mar-31 13:31N 36°23' E 025°26'0 0.0
2015-Mar-31 12:32N 36°23' E 025°26'0 0.0
2015-Mar-31 11:31N 36°23' E 025°26'0 0.0
2015-Mar-31 10:25N 36°23' E 025°26'0 0.0
2015-Mar-31 09:31N 36°23' E 025°26'0 0.0
2015-Mar-31 08:29N 36°23' E 025°26'0 0.0
2015-Mar-31 07:32N 36°23' E 025°26'0 0.0
2015-Mar-31 06:31N 36°23' E 025°26'0 0.0
2015-Mar-31 05:28N 36°23' E 025°26'0 0.0
2015-Mar-31 04:31N 36°23' E 025°26'6 5.8
2015-Mar-31 03:33N 36°28' E 025°21'8 7.8
2015-Mar-31 02:33N 36°29' E 025°31'1010.2
2015-Mar-31 01:33N 36°26' E 025°43'10 9.7
2015-Mar-31 00:33N 36°22' E 025°55'1010.0
2015-Mar-30 23:33N 36°17' E 026°05'9 9.5
2015-Mar-30 22:33N 36°12' E 026°15'9 8.7
2015-Mar-30 21:30N 36°06' E 026°24'  
Track history (hours):
 
Tides and Currents Weather Stations Pressure Air Temp Water Temp Dewpoint Dewpoint Depression Visibility Wind Speed Wind Dir Waves Ship Positions

Eko 2

Last reported at 2015-Apr-02 05:16 UTC. Time now 2015-Apr-02 06:32 UTC.
Position N 38°02' E 023°32'.

Length 89 m; draft 4.4 m.

Type: Ship (hazmat cat A). MMSI: 240827000.

Date/timePositionNaut miles runAvg speedWind from/ knotsBaromVisibWave heightAir tempDewpointWater temp
2015-Apr-02 05:16N 38°02' E 023°32'2 2.6
2015-Apr-02 04:31N 37°60' E 023°33'5 5.7
2015-Apr-02 03:33N 37°55' E 023°36'7 7.5
2015-Apr-02 02:33N 37°48' E 023°41'9 9.4
2015-Apr-02 01:33N 37°40' E 023°46'49 9.5
2015-Apr-01 20:25N 37°23' E 024°44'8 9.2
2015-Apr-01 19:33N 37°20' E 024°53'10 8.4
2015-Apr-01 18:19N 37°16' E 025°05'6 8.4
2015-Apr-01 17:33N 37°13' E 025°12'9 9.0
2015-Apr-01 16:33N 37°07' E 025°21'1 1.4
2015-Apr-01 15:33N 37°06' E 025°22'1 0.6
2015-Apr-01 14:33N 37°06' E 025°22'0 0.0
2015-Apr-01 13:33N 37°06' E 025°22'2 1.7
2015-Apr-01 12:33N 37°07' E 025°20'2 1.7
2015-Apr-01 11:33N 37°06' E 025°22'0 0.0
2015-Apr-01 10:33N 37°06' E 025°22'0 0.1
2015-Apr-01 09:33N 37°06' E 025°22'0 0.1
2015-Apr-01 08:30N 37°06' E 025°22'0 0.0
2015-Apr-01 07:33N 37°06' E 025°22'0 0.4
2015-Apr-01 06:33N 37°06' E 025°22'0 0.4
2015-Apr-01 05:32N 37°06' E 025°22'1 1.1
2015-Apr-01 04:33N 37°06' E 025°21'3310.2
2015-Apr-01 01:17N 36°33' E 025°18'810.4
2015-Apr-01 00:33N 36°26' E 025°23'4 3.8
2015-Mar-31 23:28N 36°23' E 025°26'0 0.0
2015-Mar-31 22:31N 36°23' E 025°26'0 0.0
2015-Mar-31 21:28N 36°23' E 025°26'0 0.0
2015-Mar-31 20:32N 36°23' E 025°26'0 0.0
2015-Mar-31 19:31N 36°23' E 025°26'0 0.0
2015-Mar-31 18:31N 36°23' E 025°26'0 0.0
2015-Mar-31 17:32N 36°23' E 025°26'0 0.0
2015-Mar-31 16:32N 36°23' E 025°26'0 0.0
2015-Mar-31 15:32N 36°23' E 025°26'0 0.0
2015-Mar-31 14:31N 36°23' E 025°26'0 0.0
2015-Mar-31 13:31N 36°23' E 025°26'0 0.0
2015-Mar-31 12:32N 36°23' E 025°26'0 0.0
2015-Mar-31 11:31N 36°23' E 025°26'0 0.0
2015-Mar-31 10:25N 36°23' E 025°26'0 0.0
2015-Mar-31 09:31N 36°23' E 025°26'0 0.0
2015-Mar-31 08:29N 36°23' E 025°26'0 0.0
2015-Mar-31 07:32N 36°23' E 025°26'0 0.0
2015-Mar-31 06:31N 36°23' E 025°26'0 0.0
2015-Mar-31 05:28N 36°23' E 025°26'0 0.0
2015-Mar-31 04:31N 36°23' E 025°26'6 5.8
2015-Mar-31 03:33N 36°28' E 025°21'8 7.8
2015-Mar-31 02:33N 36°29' E 025°31'1010.2
2015-Mar-31 01:33N 36°26' E 025°43'10 9.7
2015-Mar-31 00:33N 36°22' E 025°55'1010.0
2015-Mar-30 23:33N 36°17' E 026°05'9 9.5
2015-Mar-30 22:33N 36°12' E 026°15'9 8.7
2015-Mar-30 21:30N 36°06' E 026°24'  

Dump ship's entire track history